CheckWX is a tool to help pilots better visualize weather data.  It is not intended as a substitute for an official pre-flight weather briefing.

12:51:04 UTC

EGSS TAF
London Stansted Airport
London, United Kingdom
TAF EGSS 171059Z 1712/1818 21012KT 9999 SCT035 BECMG 1801/1804 6000 PROB30 TEMPO 1802/1806 3000 BR BKN004 BECMG 1804/1807 9999 TEMPO 1812/1818 7000 RA SHRA BECMG 1813/1816 VRB04KT PROB40 TEMPO 1816/1818 BKN010

Jun-17@
12:00 UTC

Jun-17 @ 12:00 UTC

Jun-18@
01:00 UTC

Jun-18 @ 01:00 UTC

TAF EGSS 171059Z 1712/1818 21012KT 9999 SCT035
Wind
  • 210° at 12 KTS
Cloud Levels
  • Scattered at 3,500' AGL

Jun-18@
01:00 UTC

Jun-18 @ 01:00 UTC

Jun-18@
04:00 UTC

Jun-18 @ 04:00 UTC

BECMG 1801/1804 6000

Becoming

Becoming Conditions expected by Tue, Jun 18, 2019 @ 04:00 UTC

Wind
  • 210° at 12 KTS
Cloud Levels
  • Scattered at 3,500' AGL

Jun-18@
02:00 UTC

Jun-18 @ 02:00 UTC

Jun-18@
06:00 UTC

Jun-18 @ 06:00 UTC

PROB30 TEMPO 1802/1806 3000 BR BKN004

Temporary - 30% Likelihood

Temporary - 30% Likelihood during this time.

Conditions
Mist
Cloud Levels
  • Broken at 400' AGL

Jun-18@
04:00 UTC

Jun-18 @ 04:00 UTC

Jun-18@
13:00 UTC

Jun-18 @ 13:00 UTC

BECMG 1804/1807 9999

Becoming

Becoming Conditions expected by Tue, Jun 18, 2019 @ 07:00 UTC

Wind
  • 210° at 12 KTS
Cloud Levels
  • Scattered at 3,500' AGL

Jun-18@
12:00 UTC

Jun-18 @ 12:00 UTC

Jun-18@
18:00 UTC

Jun-18 @ 18:00 UTC

TEMPO 1812/1818 7000 RA SHRA

Temporary

Temporary Changes expected for less than half the time period

Conditions
Rain, Rain

Jun-18@
13:00 UTC

Jun-18 @ 13:00 UTC

Jun-18@
18:00 UTC

Jun-18 @ 18:00 UTC

BECMG 1813/1816 VRB04KT

Becoming

Becoming Conditions expected by Tue, Jun 18, 2019 @ 16:00 UTC

Wind
  • Variable at 4 KTS
Cloud Levels
  • Scattered at 3,500' AGL

Jun-18@
16:00 UTC

Jun-18 @ 16:00 UTC

Jun-18@
18:00 UTC

Jun-18 @ 18:00 UTC

PROB40 TEMPO 1816/1818 BKN010

Temporary - 40% Likelihood

Temporary - 40% Likelihood during this time.

Cloud Levels
  • Broken at 1,000' AGL